РегистрацияВход
[ Новые сообщения · Участники · Правила форума · Поиск · RSS ]
  • Страница 1 из 1
  • 1
Модератор форума: Edpru, Geurza, GUMAR, Vint40  
Форум » Летное поле » Класс общей предполетной подготовки » 2-3 2013
2-3 2013
334-CountДата: Суббота, 02.02.2013, 11:50 | Сообщение # 1
Майор
Группа: Администраторы
Сообщений: 1082
Награды: 4
Репутация: 33
Статус: Offline
Погода
URKK 020730Z 17006G09MPS 9999 FEW033CB SCT053 BKN100 06/04 Q1011 NOSIG RMK QFE755 SC060=

ПМУ, круг левый.


=TMS=334=Count, начальник ИАС в/ч 1252
 
266-DEMДата: Суббота, 02.02.2013, 15:02 | Сообщение # 2
Капитан
Группа: Пользователи
Сообщений: 333
Награды: 2
Репутация: 9
Статус: Offline
Пол дня сижу в ТСке, никого...
 
273-GUMARДата: Суббота, 02.02.2013, 18:27 | Сообщение # 3
Майор
Группа: Администраторы
Сообщений: 1191
Награды: 6
Репутация: 25
Статус: Offline
Завтра после 16-00МСК буду.

 
334-CountДата: Суббота, 02.02.2013, 19:51 | Сообщение # 4
Майор
Группа: Администраторы
Сообщений: 1082
Награды: 4
Репутация: 33
Статус: Offline
Я вчера предупредил, что занят. Завтра - вот буду с 1400-1500

=TMS=334=Count, начальник ИАС в/ч 1252
 
100-GeurzaДата: Воскресенье, 03.02.2013, 01:25 | Сообщение # 5
Майор
Группа: Администраторы
Сообщений: 251
Награды: 0
Репутация: 6
Статус: Offline
Ввиду технических проблем выбыл из строя как минимум на неделю (как там? у каждого техника есть дежурная зарубина?...если получится завтра смогу только в качестве РП

Командир 10САП, =TMS-=100=-Geurza
 
334-CountДата: Воскресенье, 03.02.2013, 13:16 | Сообщение # 6
Майор
Группа: Администраторы
Сообщений: 1082
Награды: 4
Репутация: 33
Статус: Offline
URKK 030900Z 14005G08MPS CAVOK 11/00 Q1015 NOSIG RMK QFE758 SC070=

ПМУ, круг левый.


=TMS=334=Count, начальник ИАС в/ч 1252
 
334-CountДата: Воскресенье, 03.02.2013, 15:42 | Сообщение # 7
Майор
Группа: Администраторы
Сообщений: 1082
Награды: 4
Репутация: 33
Статус: Offline
Отлетат в 334 паре с 305

=TMS=334=Count, начальник ИАС в/ч 1252
 
273-GUMARДата: Воскресенье, 03.02.2013, 15:45 | Сообщение # 8
Майор
Группа: Администраторы
Сообщений: 1191
Награды: 6
Репутация: 25
Статус: Offline
Цитата (Geurza)
(как там, у каждого техника есть дежурная зарубина?
100-й, ты поаккуратнее с выражениями - заподъ... Калываем! Зарубина, блин.:)


 
510-lokcerДата: Понедельник, 04.02.2013, 16:52 | Сообщение # 9
Капитан
Группа: Модераторы
Сообщений: 132
Награды: 0
Репутация: 2
Статус: Offline
Был 02.03.2013 - отлетал круги
 
Форум » Летное поле » Класс общей предполетной подготовки » 2-3 2013
  • Страница 1 из 1
  • 1
Поиск: